createdAt,value
2022-10-04T00:07:36.968Z,96371.78
2022-10-04T00:13:18.238Z,96377.91
2022-10-04T00:16:07.627Z,96384.67
2022-10-04T00:19:05.978Z,96395.24
2022-10-04T00:25:22.192Z,96384.30
2022-10-04T00:31:24.657Z,96389.66
2022-10-04T00:37:54.119Z,96378.27
2022-10-04T00:43:32.121Z,96385.15
2022-10-04T00:49:20.362Z,96373.94
2022-10-04T00:54:54.619Z,96379.19
2022-10-04T01:00:26.903Z,96383.56
2022-10-04T01:06:02.126Z,96377.88
2022-10-04T01:11:34.056Z,96377.19
2022-10-04T01:14:27.869Z,96374.25
2022-10-04T01:17:17.752Z,96373.85
2022-10-04T01:23:05.248Z,96359.48
2022-10-04T01:25:53.775Z,96358.13
2022-10-04T01:28:46.443Z,96365.99
2022-10-04T01:31:38.046Z,96363.17
2022-10-04T01:34:28.713Z,96357.76
2022-10-04T01:37:17.065Z,96349.75
2022-10-04T01:40:09.763Z,96347.53
2022-10-04T01:43:02.645Z,96351.84
2022-10-04T01:45:52.885Z,96348.64
2022-10-04T01:51:28.336Z,96347.29
2022-10-04T01:54:18.431Z,96345.83
2022-10-04T01:57:13.573Z,96339.84
2022-10-04T02:00:05.649Z,96342.70
2022-10-04T02:02:56.100Z,96341.95
2022-10-04T02:05:47.535Z,96340.84
2022-10-04T02:08:38.700Z,96338.50
2022-10-04T02:14:16.013Z,96341.27
2022-10-04T02:17:08.252Z,96342.87
2022-10-04T02:19:56.926Z,96342.02
2022-10-04T02:22:46.757Z,96346.94
2022-10-04T02:31:27.334Z,96349.83
2022-10-04T02:37:03.851Z,96344.77
2022-10-04T02:42:44.514Z,96336.86
2022-10-04T02:48:36.672Z,96338.25
2022-10-04T02:51:34.308Z,96333.94
2022-10-04T02:57:24.273Z,96325.03
2022-10-04T03:00:18.574Z,96319.52
2022-10-04T03:06:08.830Z,96310.27
2022-10-04T03:08:59.634Z,96317.03
2022-10-04T03:14:35.166Z,96312.75
2022-10-04T03:17:24.179Z,96315.14
2022-10-04T03:23:08.120Z,96307.34
2022-10-04T03:28:46.905Z,96313.47
2022-10-04T03:34:27.062Z,96314.82
2022-10-04T03:37:18.588Z,96310.05
2022-10-04T03:43:01.160Z,96314.22
2022-10-04T03:45:50.174Z,96310.16
2022-10-04T03:51:23.011Z,96319.02
2022-10-04T03:57:01.073Z,96323.32
2022-10-04T04:02:43.712Z,96327.49
2022-10-04T04:05:33.777Z,96330.20
2022-10-04T04:11:14.056Z,96317.66
2022-10-04T04:17:01.279Z,96315.05
2022-10-04T04:22:37.856Z,96308.77
2022-10-04T04:25:26.769Z,96318.98
2022-10-04T04:31:08.210Z,96315.73
2022-10-04T04:34:00.371Z,96323.41
2022-10-04T04:39:41.939Z,96320.05
2022-10-04T04:45:22.250Z,96323.37
2022-10-04T04:50:58.943Z,96309.91
2022-10-04T04:56:36.418Z,96310.27
2022-10-04T05:02:31.001Z,96329.94
2022-10-04T05:08:16.694Z,96333.64
2022-10-04T05:13:56.877Z,96334.84
2022-10-04T05:16:47.448Z,96331.96
2022-10-04T05:25:08.438Z,96341.03
2022-10-04T05:27:56.894Z,96340.03
2022-10-04T05:33:39.790Z,96327.64
2022-10-04T05:39:36.895Z,96335.97
2022-10-04T05:42:28.282Z,96337.53
2022-10-04T05:50:49.843Z,96336.11
2022-10-04T05:56:43.474Z,96340.67
2022-10-04T06:03:07.699Z,96344.97
2022-10-04T06:08:49.457Z,96339.30
2022-10-04T06:14:49.959Z,96337.17
2022-10-04T06:21:15.859Z,96335.02
2022-10-04T06:26:55.379Z,96360.70
2022-10-04T06:33:02.404Z,96371.78
2022-10-04T06:39:19.098Z,96376.05
2022-10-04T06:42:34.207Z,96370.82
2022-10-04T06:45:56.568Z,96375.05
2022-10-04T06:52:17.684Z,96379.36
2022-10-04T06:58:21.455Z,96385.55
2022-10-04T07:04:04.437Z,96382.16
2022-10-04T07:12:22.052Z,96386.04
2022-10-04T07:21:00.100Z,96382.08
2022-10-04T07:26:38.105Z,96391.23
2022-10-04T07:32:18.449Z,96394.44
2022-10-04T07:35:16.857Z,96399.26
2022-10-04T07:41:07.397Z,96408.94
2022-10-04T07:49:43.602Z,96402.39
2022-10-04T07:55:45.450Z,96412.98
2022-10-04T08:01:27.520Z,96413.73
2022-10-04T08:07:14.161Z,96423.25
2022-10-04T08:10:06.919Z,96425.67
2022-10-04T08:15:50.888Z,96419.55
2022-10-04T08:21:33.498Z,96430.05
2022-10-04T08:24:25.823Z,96432.91
2022-10-04T08:30:20.894Z,96437.72
2022-10-04T08:36:01.454Z,96430.25
2022-10-04T08:42:23.825Z,96426.09
2022-10-04T08:48:58.449Z,96424.73
2022-10-04T08:55:37.249Z,96420.91
2022-10-04T08:58:53.280Z,96418.22
2022-10-04T09:02:35.217Z,96425.27
2022-10-04T09:05:56.059Z,96422.23
2022-10-04T09:12:28.883Z,96415.77
2022-10-04T09:21:02.420Z,96423.49
2022-10-04T09:26:58.826Z,96416.77
2022-10-04T09:30:06.356Z,96414.51
2022-10-04T09:33:36.105Z,96429.98
2022-10-04T09:39:32.180Z,96425.87
2022-10-04T09:45:27.008Z,96421.72
2022-10-04T09:48:29.741Z,96420.73
2022-10-04T09:51:45.324Z,96420.22
2022-10-04T09:58:01.757Z,96411.61
2022-10-04T10:03:47.954Z,96419.34
2022-10-04T10:07:14.709Z,96417.18
2022-10-04T10:13:33.213Z,96407.28
2022-10-04T10:19:50.363Z,96409.65
2022-10-04T10:25:51.778Z,96405.73
2022-10-04T10:31:54.435Z,96409.53
2022-10-04T10:35:38.382Z,96413.14
2022-10-04T10:41:46.117Z,96408.30
2022-10-04T10:51:03.714Z,96405.78
2022-10-04T10:57:12.557Z,96406.70
2022-10-04T11:00:27.706Z,96404.09
2022-10-04T11:04:14.452Z,96398.31
2022-10-04T11:10:33.926Z,96405.53
2022-10-04T11:13:39.744Z,96401.14
2022-10-04T11:20:18.796Z,96396.02
2022-10-04T11:27:04.547Z,96384.64
2022-10-04T11:36:35.251Z,96380.81
2022-10-04T11:43:01.721Z,96382.17
2022-10-04T11:48:52.130Z,96382.02
2022-10-04T11:58:12.199Z,96367.25
2022-10-04T12:04:23.832Z,96361.08
2022-10-04T12:10:28.989Z,96363.75
2022-10-04T12:13:28.666Z,96359.47
2022-10-04T12:20:08.680Z,96349.50
2022-10-04T12:25:53.896Z,96335.05
2022-10-04T12:29:04.791Z,96328.92
2022-10-04T12:34:43.050Z,96332.77
2022-10-04T12:37:34.343Z,96337.61
2022-10-04T12:40:26.751Z,96335.84
2022-10-04T12:48:59.476Z,96327.08
2022-10-04T12:54:47.341Z,96323.27
2022-10-04T12:57:43.567Z,96315.88
2022-10-04T13:03:31.898Z,96317.56
2022-10-04T13:09:11.497Z,96309.91
2022-10-04T13:15:03.255Z,96312.70
2022-10-04T13:20:48.481Z,96320.03
2022-10-04T13:26:37.892Z,96320.74
2022-10-04T13:29:28.257Z,96317.60
2022-10-04T13:34:59.149Z,96311.07
2022-10-04T13:41:03.368Z,96321.56
2022-10-04T13:46:40.231Z,96315.33
2022-10-04T13:55:48.499Z,96303.96
2022-10-04T13:58:42.718Z,96312.37
2022-10-04T14:04:35.808Z,96314.70
2022-10-04T14:10:46.686Z,96311.30
2022-10-04T14:13:45.494Z,96319.53
2022-10-04T14:19:44.011Z,96311.89
2022-10-04T14:22:50.087Z,96313.87
2022-10-04T14:29:07.174Z,96318.58
2022-10-04T14:32:36.065Z,96314.39
2022-10-04T14:35:28.345Z,96319.08
2022-10-04T14:42:14.295Z,96316.36
2022-10-04T14:48:38.755Z,96319.98
2022-10-04T14:51:33.139Z,96319.75
2022-10-04T14:54:29.591Z,96314.55
2022-10-04T15:00:17.650Z,96316.48
2022-10-04T15:06:29.369Z,96314.34
2022-10-04T15:24:49.550Z,96314.36
2022-10-04T15:27:51.211Z,96313.53
2022-10-04T15:33:42.122Z,96309.44
2022-10-04T15:39:53.515Z,96303.16
2022-10-04T15:42:43.175Z,96308.55
2022-10-04T15:48:40.881Z,96303.87
2022-10-04T15:55:01.783Z,96300.91
2022-10-04T16:01:18.476Z,96286.38
2022-10-04T16:07:07.126Z,96285.66
2022-10-04T16:12:39.283Z,96284.16
2022-10-04T16:18:43.276Z,96288.47
2022-10-04T16:24:40.094Z,96284.92
2022-10-04T16:27:51.525Z,96283.98
2022-10-04T16:33:32.024Z,96286.40
2022-10-04T16:39:31.218Z,96286.39
2022-10-04T16:48:38.342Z,96293.73
2022-10-04T16:54:44.640Z,96299.88
2022-10-04T17:00:41.702Z,96294.61
2022-10-04T17:09:25.683Z,96291.47
2022-10-04T17:15:46.423Z,96299.73
2022-10-04T17:21:30.744Z,96305.38
2022-10-04T17:27:22.429Z,96318.30
2022-10-04T17:33:23.171Z,96330.11
2022-10-04T17:36:29.976Z,96332.91
2022-10-04T17:45:49.948Z,96330.45
2022-10-04T17:51:59.507Z,96337.98
2022-10-04T17:57:47.131Z,96342.63
2022-10-04T18:00:58.572Z,96345.70
2022-10-04T18:06:48.351Z,96340.70
2022-10-04T18:13:04.466Z,96352.73
2022-10-04T18:21:43.679Z,96351.16
2022-10-04T18:30:15.836Z,96341.84
2022-10-04T18:39:10.310Z,96341.36
2022-10-04T18:45:04.447Z,96329.53
2022-10-04T18:50:39.984Z,96326.58
2022-10-04T18:56:33.757Z,96324.98
2022-10-04T19:02:13.339Z,96342.70
2022-10-04T19:08:20.157Z,96343.02
2022-10-04T19:16:46.777Z,96353.84
2022-10-04T19:25:36.279Z,96361.29
2022-10-04T19:31:19.773Z,96362.92
2022-10-04T19:37:03.738Z,96370.35
2022-10-04T19:51:00.559Z,96378.17
2022-10-04T19:56:44.225Z,96394.70
2022-10-04T20:02:22.358Z,96396.28
2022-10-04T20:08:11.507Z,96400.42
2022-10-04T20:14:44.056Z,96391.69
2022-10-04T20:20:18.100Z,96404.86
2022-10-04T20:23:07.765Z,96404.13
2022-10-04T20:26:04.247Z,96408.08
2022-10-04T20:32:00.306Z,96404.44
2022-10-04T20:34:51.589Z,96408.92
2022-10-04T20:38:32.978Z,96411.56
2022-10-04T20:41:09.141Z,96407.40
2022-10-04T20:44:01.370Z,96410.17
2022-10-04T20:49:40.677Z,96412.09
2022-10-04T20:58:31.459Z,96420.03
2022-10-04T21:04:17.005Z,96416.90
2022-10-04T21:12:40.891Z,96423.73
2022-10-04T21:15:56.724Z,96426.22
2022-10-04T21:18:46.107Z,96436.63
2022-10-04T21:21:50.897Z,96434.86
2022-10-04T21:27:31.701Z,96434.63
2022-10-04T21:33:11.531Z,96438.94
2022-10-04T21:38:49.036Z,96444.02
2022-10-04T21:44:23.767Z,96447.71
2022-10-04T21:50:00.904Z,96448.97
2022-10-04T21:52:49.354Z,96447.88
2022-10-04T21:58:25.143Z,96451.66
2022-10-04T22:04:02.850Z,96451.66
2022-10-04T22:06:51.324Z,96459.14
2022-10-04T22:12:36.832Z,96446.47
2022-10-04T22:18:08.613Z,96446.97
2022-10-04T22:23:40.694Z,96455.87
2022-10-04T22:29:16.589Z,96452.13
2022-10-04T22:35:01.586Z,96454.98
2022-10-04T22:40:36.567Z,96457.58
2022-10-04T22:46:18.293Z,96452.92
2022-10-04T22:51:53.325Z,96453.84
2022-10-04T23:00:20.127Z,96446.18
2022-10-04T23:03:17.656Z,96448.97
2022-10-04T23:08:53.940Z,96451.44
2022-10-04T23:14:24.801Z,96448.09
2022-10-04T23:20:10.022Z,96452.66
2022-10-04T23:23:01.333Z,96450.09
2022-10-04T23:28:38.413Z,96454.89
2022-10-04T23:34:15.885Z,96451.20
2022-10-04T23:39:51.558Z,96454.26
2022-10-04T23:45:27.179Z,96444.17
2022-10-04T23:51:05.887Z,96442.75
2022-10-04T23:53:53.760Z,96442.20
2022-10-04T23:56:44.703Z,96438.77
2022-10-04T23:59:33.496Z,96435.27
